sensor_id;sensor_type;location;lat;lon;timestamp;P1;durP1;ratioP1;P2;durP2;ratioP2
69260;SDS011;56378;52.404;20.816;2024-02-21T00:00:46;9.77;;;2.20;;
69260;SDS011;56378;52.404;20.816;2024-02-21T00:03:12;9.82;;;2.67;;
69260;SDS011;56378;52.404;20.816;2024-02-21T00:05:38;8.97;;;2.03;;
69260;SDS011;56378;52.404;20.816;2024-02-21T00:08:04;9.07;;;2.22;;
69260;SDS011;56378;52.404;20.816;2024-02-21T00:10:30;12.93;;;2.33;;
69260;SDS011;56378;52.404;20.816;2024-02-21T00:12:57;11.13;;;2.67;;
69260;SDS011;56378;52.404;20.816;2024-02-21T00:15:24;10.93;;;2.60;;
69260;SDS011;56378;52.404;20.816;2024-02-21T00:17:50;15.65;;;2.90;;
69260;SDS011;56378;52.404;20.816;2024-02-21T00:20:16;9.03;;;2.37;;
69260;SDS011;56378;52.404;20.816;2024-02-21T00:22:42;10.25;;;2.80;;
69260;SDS011;56378;52.404;20.816;2024-02-21T00:25:12;8.38;;;2.13;;
69260;SDS011;56378;52.404;20.816;2024-02-21T00:27:38;12.13;;;2.70;;
69260;SDS011;56378;52.404;20.816;2024-02-21T00:30:04;11.68;;;2.17;;
69260;SDS011;56378;52.404;20.816;2024-02-21T00:32:30;11.83;;;2.90;;
69260;SDS011;56378;52.404;20.816;2024-02-21T00:34:59;10.75;;;2.80;;
69260;SDS011;56378;52.404;20.816;2024-02-21T00:37:24;11.40;;;2.45;;
69260;SDS011;56378;52.404;20.816;2024-02-21T00:39:50;10.20;;;2.60;;
69260;SDS011;56378;52.404;20.816;2024-02-21T00:42:16;9.20;;;2.53;;
69260;SDS011;56378;52.404;20.816;2024-02-21T00:44:41;12.00;;;2.47;;
69260;SDS011;56378;52.404;20.816;2024-02-21T00:47:07;11.35;;;2.50;;
69260;SDS011;56378;52.404;20.816;2024-02-21T00:49:35;13.23;;;2.70;;
69260;SDS011;56378;52.404;20.816;2024-02-21T00:52:00;12.52;;;2.50;;
69260;SDS011;56378;52.404;20.816;2024-02-21T00:54:26;14.87;;;2.57;;
69260;SDS011;56378;52.404;20.816;2024-02-21T00:56:52;12.80;;;3.13;;
69260;SDS011;56378;52.404;20.816;2024-02-21T00:59:17;14.00;;;3.30;;
69260;SDS011;56378;52.404;20.816;2024-02-21T01:01:43;12.38;;;3.15;;
69260;SDS011;56378;52.404;20.816;2024-02-21T01:04:09;15.10;;;3.10;;
69260;SDS011;56378;52.404;20.816;2024-02-21T01:06:35;15.80;;;3.50;;
69260;SDS011;56378;52.404;20.816;2024-02-21T01:09:00;12.13;;;3.37;;
69260;SDS011;56378;52.404;20.816;2024-02-21T01:11:26;15.27;;;3.30;;
69260;SDS011;56378;52.404;20.816;2024-02-21T01:13:52;15.40;;;3.10;;
69260;SDS011;56378;52.404;20.816;2024-02-21T01:16:18;11.03;;;2.83;;
69260;SDS011;56378;52.404;20.816;2024-02-21T01:18:44;11.02;;;3.55;;
69260;SDS011;56378;52.404;20.816;2024-02-21T01:21:09;15.63;;;3.40;;
69260;SDS011;56378;52.404;20.816;2024-02-21T01:23:35;11.20;;;2.90;;
69260;SDS011;56378;52.404;20.816;2024-02-21T01:26:02;18.53;;;3.10;;
69260;SDS011;56378;52.404;20.816;2024-02-21T01:28:28;14.75;;;3.47;;
69260;SDS011;56378;52.404;20.816;2024-02-21T01:30:54;13.52;;;3.22;;
69260;SDS011;56378;52.404;20.816;2024-02-21T01:33:20;13.07;;;3.47;;
69260;SDS011;56378;52.404;20.816;2024-02-21T01:35:46;14.70;;;3.53;;
69260;SDS011;56378;52.404;20.816;2024-02-21T01:38:12;15.98;;;3.60;;
69260;SDS011;56378;52.404;20.816;2024-02-21T01:40:38;13.90;;;3.30;;
69260;SDS011;56378;52.404;20.816;2024-02-21T01:43:14;13.55;;;3.33;;
69260;SDS011;56378;52.404;20.816;2024-02-21T01:45:51;14.50;;;3.67;;
69260;SDS011;56378;52.404;20.816;2024-02-21T01:48:20;14.75;;;3.92;;
69260;SDS011;56378;52.404;20.816;2024-02-21T01:50:50;12.37;;;3.70;;
69260;SDS011;56378;52.404;20.816;2024-02-21T01:53:18;16.88;;;4.00;;
69260;SDS011;56378;52.404;20.816;2024-02-21T01:55:46;15.13;;;4.50;;
69260;SDS011;56378;52.404;20.816;2024-02-21T01:58:16;16.67;;;4.43;;
69260;SDS011;56378;52.404;20.816;2024-02-21T02:00:43;15.20;;;4.50;;
69260;SDS011;56378;52.404;20.816;2024-02-21T02:03:10;17.07;;;4.70;;
69260;SDS011;56378;52.404;20.816;2024-02-21T02:05:45;16.08;;;4.68;;
69260;SDS011;56378;52.404;20.816;2024-02-21T02:08:15;20.98;;;5.20;;
69260;SDS011;56378;52.404;20.816;2024-02-21T02:10:42;21.23;;;5.50;;
69260;SDS011;56378;52.404;20.816;2024-02-21T02:13:08;13.60;;;5.07;;
69260;SDS011;56378;52.404;20.816;2024-02-21T02:15:38;15.03;;;5.73;;
69260;SDS011;56378;52.404;20.816;2024-02-21T02:18:07;22.23;;;5.70;;
69260;SDS011;56378;52.404;20.816;2024-02-21T02:20:33;23.10;;;5.80;;
69260;SDS011;56378;52.404;20.816;2024-02-21T02:23:00;22.35;;;5.82;;
69260;SDS011;56378;52.404;20.816;2024-02-21T02:25:35;16.73;;;6.53;;
69260;SDS011;56378;52.404;20.816;2024-02-21T02:28:02;19.80;;;5.90;;
69260;SDS011;56378;52.404;20.816;2024-02-21T02:30:31;20.00;;;5.80;;
69260;SDS011;56378;52.404;20.816;2024-02-21T02:32:58;17.60;;;6.07;;
69260;SDS011;56378;52.404;20.816;2024-02-21T02:35:24;17.67;;;5.83;;
69260;SDS011;56378;52.404;20.816;2024-02-21T02:37:50;22.42;;;6.22;;
69260;SDS011;56378;52.404;20.816;2024-02-21T02:40:16;17.95;;;5.95;;
69260;SDS011;56378;52.404;20.816;2024-02-21T02:42:43;19.10;;;5.80;;
69260;SDS011;56378;52.404;20.816;2024-02-21T02:45:09;18.03;;;5.67;;
69260;SDS011;56378;52.404;20.816;2024-02-21T02:47:35;19.45;;;6.82;;
69260;SDS011;56378;52.404;20.816;2024-02-21T02:50:01;23.07;;;6.27;;
69260;SDS011;56378;52.404;20.816;2024-02-21T02:52:26;20.23;;;6.03;;
69260;SDS011;56378;52.404;20.816;2024-02-21T02:54:52;14.20;;;5.72;;
69260;SDS011;56378;52.404;20.816;2024-02-21T02:57:20;18.25;;;6.30;;
69260;SDS011;56378;52.404;20.816;2024-02-21T02:59:52;16.73;;;5.78;;
69260;SDS011;56378;52.404;20.816;2024-02-21T03:02:18;17.65;;;6.35;;
69260;SDS011;56378;52.404;20.816;2024-02-21T03:04:44;19.55;;;6.25;;
69260;SDS011;56378;52.404;20.816;2024-02-21T03:07:11;16.30;;;6.47;;
69260;SDS011;56378;52.404;20.816;2024-02-21T03:09:37;21.83;;;8.20;;
69260;SDS011;56378;52.404;20.816;2024-02-21T03:12:03;20.65;;;7.20;;
69260;SDS011;56378;52.404;20.816;2024-02-21T03:14:31;20.65;;;8.45;;
69260;SDS011;56378;52.404;20.816;2024-02-21T03:17:00;19.93;;;7.80;;
69260;SDS011;56378;52.404;20.816;2024-02-21T03:19:27;25.30;;;6.85;;
69260;SDS011;56378;52.404;20.816;2024-02-21T03:21:53;16.60;;;6.68;;
69260;SDS011;56378;52.404;20.816;2024-02-21T03:24:19;19.38;;;6.70;;
69260;SDS011;56378;52.404;20.816;2024-02-21T03:26:45;18.00;;;6.57;;
69260;SDS011;56378;52.404;20.816;2024-02-21T03:29:14;16.63;;;5.88;;
69260;SDS011;56378;52.404;20.816;2024-02-21T03:31:40;20.00;;;6.97;;
69260;SDS011;56378;52.404;20.816;2024-02-21T03:34:06;21.95;;;7.30;;
69260;SDS011;56378;52.404;20.816;2024-02-21T03:36:32;21.77;;;7.53;;
69260;SDS011;56378;52.404;20.816;2024-02-21T03:38:57;23.48;;;6.95;;
69260;SDS011;56378;52.404;20.816;2024-02-21T03:41:23;21.10;;;6.80;;
69260;SDS011;56378;52.404;20.816;2024-02-21T03:43:49;20.92;;;6.57;;
69260;SDS011;56378;52.404;20.816;2024-02-21T03:46:15;20.27;;;5.93;;
69260;SDS011;56378;52.404;20.816;2024-02-21T03:48:40;18.15;;;6.93;;
69260;SDS011;56378;52.404;20.816;2024-02-21T03:51:06;20.08;;;7.25;;
69260;SDS011;56378;52.404;20.816;2024-02-21T03:53:33;19.57;;;6.50;;
69260;SDS011;56378;52.404;20.816;2024-02-21T03:56:02;15.20;;;5.88;;
69260;SDS011;56378;52.404;20.816;2024-02-21T03:58:29;20.77;;;6.47;;
69260;SDS011;56378;52.404;20.816;2024-02-21T04:00:55;20.83;;;6.13;;
69260;SDS011;56378;52.404;20.816;2024-02-21T04:03:21;23.00;;;7.00;;
69260;SDS011;56378;52.404;20.816;2024-02-21T04:05:47;20.15;;;6.72;;
69260;SDS011;56378;52.404;20.816;2024-02-21T04:08:13;22.17;;;6.70;;
69260;SDS011;56378;52.404;20.816;2024-02-21T04:10:39;18.67;;;6.60;;
69260;SDS011;56378;52.404;20.816;2024-02-21T04:13:06;19.30;;;6.75;;
69260;SDS011;56378;52.404;20.816;2024-02-21T04:15:32;28.63;;;7.90;;
69260;SDS011;56378;52.404;20.816;2024-02-21T04:17:57;21.90;;;6.72;;
69260;SDS011;56378;52.404;20.816;2024-02-21T04:20:23;23.30;;;7.38;;
69260;SDS011;56378;52.404;20.816;2024-02-21T04:22:49;23.30;;;6.93;;
69260;SDS011;56378;52.404;20.816;2024-02-21T04:25:15;18.02;;;6.85;;
69260;SDS011;56378;52.404;20.816;2024-02-21T04:27:41;21.83;;;7.20;;
69260;SDS011;56378;52.404;20.816;2024-02-21T04:30:07;27.42;;;7.82;;
69260;SDS011;56378;52.404;20.816;2024-02-21T04:32:34;23.13;;;6.45;;
69260;SDS011;56378;52.404;20.816;2024-02-21T04:35:00;20.88;;;7.07;;
69260;SDS011;56378;52.404;20.816;2024-02-21T04:37:26;23.43;;;7.10;;
69260;SDS011;56378;52.404;20.816;2024-02-21T04:39:52;22.70;;;7.47;;
69260;SDS011;56378;52.404;20.816;2024-02-21T04:42:18;20.17;;;7.23;;
69260;SDS011;56378;52.404;20.816;2024-02-21T04:44:43;22.35;;;7.22;;
69260;SDS011;56378;52.404;20.816;2024-02-21T04:47:09;24.20;;;8.20;;
69260;SDS011;56378;52.404;20.816;2024-02-21T04:49:35;23.00;;;7.40;;
69260;SDS011;56378;52.404;20.816;2024-02-21T04:52:01;26.95;;;7.88;;
69260;SDS011;56378;52.404;20.816;2024-02-21T04:54:27;26.90;;;8.30;;
69260;SDS011;56378;52.404;20.816;2024-02-21T04:56:52;25.40;;;8.35;;
69260;SDS011;56378;52.404;20.816;2024-02-21T04:59:18;22.00;;;8.30;;
69260;SDS011;56378;52.404;20.816;2024-02-21T05:01:44;20.98;;;8.68;;
69260;SDS011;56378;52.404;20.816;2024-02-21T05:04:09;20.80;;;8.37;;
69260;SDS011;56378;52.404;20.816;2024-02-21T05:06:39;28.58;;;8.25;;
69260;SDS011;56378;52.404;20.816;2024-02-21T05:09:05;28.67;;;8.60;;
69260;SDS011;56378;52.404;20.816;2024-02-21T05:11:31;24.07;;;7.97;;
69260;SDS011;56378;52.404;20.816;2024-02-21T05:13:57;23.25;;;8.50;;
69260;SDS011;56378;52.404;20.816;2024-02-21T05:16:23;25.13;;;8.33;;
69260;SDS011;56378;52.404;20.816;2024-02-21T05:18:49;25.30;;;8.48;;
69260;SDS011;56378;52.404;20.816;2024-02-21T05:21:14;24.95;;;7.97;;
69260;SDS011;56378;52.404;20.816;2024-02-21T05:23:40;24.10;;;8.75;;
69260;SDS011;56378;52.404;20.816;2024-02-21T05:26:06;24.55;;;10.02;;
69260;SDS011;56378;52.404;20.816;2024-02-21T05:28:32;27.83;;;10.10;;
69260;SDS011;56378;52.404;20.816;2024-02-21T05:30:58;26.10;;;9.70;;
69260;SDS011;56378;52.404;20.816;2024-02-21T05:33:24;27.38;;;9.88;;
69260;SDS011;56378;52.404;20.816;2024-02-21T05:35:50;28.27;;;9.17;;
69260;SDS011;56378;52.404;20.816;2024-02-21T05:38:16;33.50;;;11.13;;
69260;SDS011;56378;52.404;20.816;2024-02-21T05:40:42;31.27;;;10.75;;
69260;SDS011;56378;52.404;20.816;2024-02-21T05:43:09;34.45;;;11.35;;
69260;SDS011;56378;52.404;20.816;2024-02-21T05:45:35;25.90;;;10.20;;
69260;SDS011;56378;52.404;20.816;2024-02-21T05:48:01;30.23;;;10.02;;
69260;SDS011;56378;52.404;20.816;2024-02-21T05:50:28;30.92;;;10.25;;
69260;SDS011;56378;52.404;20.816;2024-02-21T05:52:54;34.78;;;10.27;;
69260;SDS011;56378;52.404;20.816;2024-02-21T05:55:20;24.67;;;9.95;;
69260;SDS011;56378;52.404;20.816;2024-02-21T05:57:46;24.58;;;9.88;;
69260;SDS011;56378;52.404;20.816;2024-02-21T06:00:12;24.33;;;10.20;;
69260;SDS011;56378;52.404;20.816;2024-02-21T06:02:39;31.50;;;9.30;;
69260;SDS011;56378;52.404;20.816;2024-02-21T06:05:05;32.00;;;10.23;;
69260;SDS011;56378;52.404;20.816;2024-02-21T06:07:32;25.85;;;9.68;;
69260;SDS011;56378;52.404;20.816;2024-02-21T06:10:01;26.20;;;9.93;;
69260;SDS011;56378;52.404;20.816;2024-02-21T06:12:28;24.60;;;9.88;;
69260;SDS011;56378;52.404;20.816;2024-02-21T06:14:53;33.70;;;10.20;;
69260;SDS011;56378;52.404;20.816;2024-02-21T06:17:19;33.05;;;10.10;;
69260;SDS011;56378;52.404;20.816;2024-02-21T06:19:45;30.30;;;10.97;;
69260;SDS011;56378;52.404;20.816;2024-02-21T06:22:11;32.05;;;13.02;;
69260;SDS011;56378;52.404;20.816;2024-02-21T06:24:37;34.60;;;13.30;;
69260;SDS011;56378;52.404;20.816;2024-02-21T06:27:03;32.83;;;12.10;;
69260;SDS011;56378;52.404;20.816;2024-02-21T06:29:31;29.35;;;11.82;;
69260;SDS011;56378;52.404;20.816;2024-02-21T06:32:00;32.22;;;11.48;;
69260;SDS011;56378;52.404;20.816;2024-02-21T06:34:26;31.80;;;10.65;;
69260;SDS011;56378;52.404;20.816;2024-02-21T06:36:52;39.50;;;14.40;;
69260;SDS011;56378;52.404;20.816;2024-02-21T06:39:18;37.25;;;13.80;;
69260;SDS011;56378;52.404;20.816;2024-02-21T06:41:44;38.50;;;13.70;;
69260;SDS011;56378;52.404;20.816;2024-02-21T06:44:09;31.80;;;11.65;;
69260;SDS011;56378;52.404;20.816;2024-02-21T06:46:35;32.23;;;11.90;;
69260;SDS011;56378;52.404;20.816;2024-02-21T06:49:02;34.00;;;10.65;;
69260;SDS011;56378;52.404;20.816;2024-02-21T06:51:31;31.52;;;11.13;;
69260;SDS011;56378;52.404;20.816;2024-02-21T06:53:57;32.03;;;11.13;;
69260;SDS011;56378;52.404;20.816;2024-02-21T06:56:23;31.90;;;11.15;;
69260;SDS011;56378;52.404;20.816;2024-02-21T06:58:54;45.67;;;12.77;;
69260;SDS011;56378;52.404;20.816;2024-02-21T07:01:20;39.57;;;12.33;;
69260;SDS011;56378;52.404;20.816;2024-02-21T07:03:46;33.78;;;11.18;;
69260;SDS011;56378;52.404;20.816;2024-02-21T07:06:12;33.28;;;11.23;;
69260;SDS011;56378;52.404;20.816;2024-02-21T07:08:38;33.87;;;10.77;;
69260;SDS011;56378;52.404;20.816;2024-02-21T07:11:04;33.15;;;11.73;;
69260;SDS011;56378;52.404;20.816;2024-02-21T07:13:30;35.03;;;11.68;;
69260;SDS011;56378;52.404;20.816;2024-02-21T07:15:56;30.88;;;10.80;;
69260;SDS011;56378;52.404;20.816;2024-02-21T07:18:21;27.80;;;10.07;;
69260;SDS011;56378;52.404;20.816;2024-02-21T07:20:47;36.70;;;11.43;;
69260;SDS011;56378;52.404;20.816;2024-02-21T07:23:13;30.50;;;10.80;;
69260;SDS011;56378;52.404;20.816;2024-02-21T07:25:38;35.40;;;11.20;;
69260;SDS011;56378;52.404;20.816;2024-02-21T07:28:05;28.83;;;10.48;;
69260;SDS011;56378;52.404;20.816;2024-02-21T07:30:31;34.95;;;10.70;;
69260;SDS011;56378;52.404;20.816;2024-02-21T07:32:57;34.63;;;11.35;;
69260;SDS011;56378;52.404;20.816;2024-02-21T07:35:22;30.10;;;10.40;;
69260;SDS011;56378;52.404;20.816;2024-02-21T07:37:48;36.13;;;10.80;;
69260;SDS011;56378;52.404;20.816;2024-02-21T07:40:17;41.50;;;11.63;;
69260;SDS011;56378;52.404;20.816;2024-02-21T07:42:43;38.92;;;11.80;;
69260;SDS011;56378;52.404;20.816;2024-02-21T07:45:09;36.60;;;11.40;;
69260;SDS011;56378;52.404;20.816;2024-02-21T07:47:36;42.85;;;11.57;;
69260;SDS011;56378;52.404;20.816;2024-02-21T07:50:02;44.77;;;11.47;;
69260;SDS011;56378;52.404;20.816;2024-02-21T07:52:29;41.28;;;11.85;;
69260;SDS011;56378;52.404;20.816;2024-02-21T07:54:54;41.45;;;11.32;;
69260;SDS011;56378;52.404;20.816;2024-02-21T07:57:20;42.40;;;12.83;;
69260;SDS011;56378;52.404;20.816;2024-02-21T07:59:47;35.92;;;10.57;;
69260;SDS011;56378;52.404;20.816;2024-02-21T08:02:13;47.80;;;13.45;;
69260;SDS011;56378;52.404;20.816;2024-02-21T08:04:39;38.05;;;11.70;;
69260;SDS011;56378;52.404;20.816;2024-02-21T08:07:05;32.13;;;11.00;;
69260;SDS011;56378;52.404;20.816;2024-02-21T08:09:31;35.90;;;12.00;;
69260;SDS011;56378;52.404;20.816;2024-02-21T08:11:57;41.33;;;13.83;;
69260;SDS011;56378;52.404;20.816;2024-02-21T08:14:22;41.83;;;13.32;;
69260;SDS011;56378;52.404;20.816;2024-02-21T08:16:50;34.97;;;11.85;;
69260;SDS011;56378;52.404;20.816;2024-02-21T08:19:16;42.78;;;13.15;;
69260;SDS011;56378;52.404;20.816;2024-02-21T08:21:43;41.37;;;13.87;;
69260;SDS011;56378;52.404;20.816;2024-02-21T08:24:08;38.10;;;12.38;;
69260;SDS011;56378;52.404;20.816;2024-02-21T08:26:35;41.80;;;13.02;;
69260;SDS011;56378;52.404;20.816;2024-02-21T08:29:11;35.38;;;12.13;;
69260;SDS011;56378;52.404;20.816;2024-02-21T08:31:37;38.15;;;12.55;;
69260;SDS011;56378;52.404;20.816;2024-02-21T08:34:03;44.08;;;13.88;;
69260;SDS011;56378;52.404;20.816;2024-02-21T08:36:34;35.38;;;12.02;;
69260;SDS011;56378;52.404;20.816;2024-02-21T08:39:01;37.53;;;12.43;;
69260;SDS011;56378;52.404;20.816;2024-02-21T08:41:30;36.65;;;12.13;;
69260;SDS011;56378;52.404;20.816;2024-02-21T08:43:56;39.13;;;12.50;;
69260;SDS011;56378;52.404;20.816;2024-02-21T08:46:22;35.67;;;12.25;;
69260;SDS011;56378;52.404;20.816;2024-02-21T08:48:49;30.52;;;11.75;;
69260;SDS011;56378;52.404;20.816;2024-02-21T08:51:16;34.33;;;11.05;;
69260;SDS011;56378;52.404;20.816;2024-02-21T08:53:42;35.63;;;11.82;;
69260;SDS011;56378;52.404;20.816;2024-02-21T08:56:11;38.55;;;12.10;;
69260;SDS011;56378;52.404;20.816;2024-02-21T08:58:37;31.23;;;11.43;;
69260;SDS011;56378;52.404;20.816;2024-02-21T09:01:04;35.47;;;10.63;;
69260;SDS011;56378;52.404;20.816;2024-02-21T09:03:34;32.50;;;10.82;;
69260;SDS011;56378;52.404;20.816;2024-02-21T09:06:06;27.20;;;10.52;;
69260;SDS011;56378;52.404;20.816;2024-02-21T09:08:33;27.10;;;11.07;;
69260;SDS011;56378;52.404;20.816;2024-02-21T09:11:02;28.00;;;11.10;;
69260;SDS011;56378;52.404;20.816;2024-02-21T09:13:28;34.70;;;10.83;;
69260;SDS011;56378;52.404;20.816;2024-02-21T09:15:55;29.13;;;10.95;;
69260;SDS011;56378;52.404;20.816;2024-02-21T09:18:20;30.85;;;10.43;;
69260;SDS011;56378;52.404;20.816;2024-02-21T09:20:46;31.03;;;10.93;;
69260;SDS011;56378;52.404;20.816;2024-02-21T09:23:12;30.97;;;10.73;;
69260;SDS011;56378;52.404;20.816;2024-02-21T09:25:38;37.83;;;11.73;;
69260;SDS011;56378;52.404;20.816;2024-02-21T09:28:05;33.33;;;11.32;;
69260;SDS011;56378;52.404;20.816;2024-02-21T09:30:31;33.42;;;12.07;;
69260;SDS011;56378;52.404;20.816;2024-02-21T09:32:57;28.50;;;11.43;;
69260;SDS011;56378;52.404;20.816;2024-02-21T09:35:27;36.67;;;12.38;;
69260;SDS011;56378;52.404;20.816;2024-02-21T09:37:53;32.78;;;12.68;;
69260;SDS011;56378;52.404;20.816;2024-02-21T09:40:19;35.80;;;11.88;;
69260;SDS011;56378;52.404;20.816;2024-02-21T09:42:46;31.98;;;11.10;;
69260;SDS011;56378;52.404;20.816;2024-02-21T09:50:17;35.15;;;11.32;;
69260;SDS011;56378;52.404;20.816;2024-02-21T09:52:46;29.08;;;10.27;;
69260;SDS011;56378;52.404;20.816;2024-02-21T09:55:13;33.40;;;11.75;;
69260;SDS011;56378;52.404;20.816;2024-02-21T09:57:40;32.57;;;11.83;;
69260;SDS011;56378;52.404;20.816;2024-02-21T10:00:06;33.92;;;12.38;;
69260;SDS011;56378;52.404;20.816;2024-02-21T10:02:33;39.13;;;13.10;;
69260;SDS011;56378;52.404;20.816;2024-02-21T10:04:59;34.15;;;12.32;;
69260;SDS011;56378;52.404;20.816;2024-02-21T10:07:25;30.27;;;12.17;;
69260;SDS011;56378;52.404;20.816;2024-02-21T10:10:00;35.65;;;12.52;;
69260;SDS011;56378;52.404;20.816;2024-02-21T10:12:27;40.22;;;13.60;;
69260;SDS011;56378;52.404;20.816;2024-02-21T10:15:02;35.77;;;13.27;;
69260;SDS011;56378;52.404;20.816;2024-02-21T10:17:28;37.13;;;13.40;;
69260;SDS011;56378;52.404;20.816;2024-02-21T10:19:54;29.13;;;12.20;;
69260;SDS011;56378;52.404;20.816;2024-02-21T10:22:20;38.10;;;12.30;;
69260;SDS011;56378;52.404;20.816;2024-02-21T10:24:46;37.15;;;11.57;;
69260;SDS011;56378;52.404;20.816;2024-02-21T10:27:12;33.07;;;11.20;;
69260;SDS011;56378;52.404;20.816;2024-02-21T10:29:38;36.88;;;12.57;;
69260;SDS011;56378;52.404;20.816;2024-02-21T10:32:08;35.03;;;12.70;;
69260;SDS011;56378;52.404;20.816;2024-02-21T10:34:36;33.88;;;12.13;;
69260;SDS011;56378;52.404;20.816;2024-02-21T10:37:03;32.53;;;11.70;;
69260;SDS011;56378;52.404;20.816;2024-02-21T10:39:33;29.55;;;12.68;;
69260;SDS011;56378;52.404;20.816;2024-02-21T10:42:00;30.17;;;12.20;;
69260;SDS011;56378;52.404;20.816;2024-02-21T10:44:30;35.60;;;12.43;;
69260;SDS011;56378;52.404;20.816;2024-02-21T10:46:57;33.85;;;12.30;;
69260;SDS011;56378;52.404;20.816;2024-02-21T10:49:24;26.27;;;11.80;;
69260;SDS011;56378;52.404;20.816;2024-02-21T10:52:06;41.05;;;12.13;;
69260;SDS011;56378;52.404;20.816;2024-02-21T10:55:04;38.95;;;12.85;;
69260;SDS011;56378;52.404;20.816;2024-02-21T10:57:50;42.03;;;11.50;;
69260;SDS011;56378;52.404;20.816;2024-02-21T11:00:17;30.35;;;11.48;;
69260;SDS011;56378;52.404;20.816;2024-02-21T11:02:43;35.80;;;12.10;;
69260;SDS011;56378;52.404;20.816;2024-02-21T11:05:11;31.67;;;12.18;;
69260;SDS011;56378;52.404;20.816;2024-02-21T11:07:38;29.98;;;12.43;;
69260;SDS011;56378;52.404;20.816;2024-02-21T11:10:05;29.77;;;11.93;;
69260;SDS011;56378;52.404;20.816;2024-02-21T11:12:32;36.85;;;12.90;;
69260;SDS011;56378;52.404;20.816;2024-02-21T11:15:08;30.23;;;11.97;;
69260;SDS011;56378;52.404;20.816;2024-02-21T11:17:34;29.77;;;12.48;;
69260;SDS011;56378;52.404;20.816;2024-02-21T11:20:10;30.55;;;11.65;;
69260;SDS011;56378;52.404;20.816;2024-02-21T11:22:41;32.23;;;12.27;;
69260;SDS011;56378;52.404;20.816;2024-02-21T11:25:07;28.17;;;11.88;;
69260;SDS011;56378;52.404;20.816;2024-02-21T11:27:36;30.73;;;12.27;;
69260;SDS011;56378;52.404;20.816;2024-02-21T11:30:04;31.23;;;12.75;;
69260;SDS011;56378;52.404;20.816;2024-02-21T11:32:30;34.65;;;12.52;;
69260;SDS011;56378;52.404;20.816;2024-02-21T11:35:00;29.00;;;12.30;;
69260;SDS011;56378;52.404;20.816;2024-02-21T11:37:30;33.15;;;12.00;;
69260;SDS011;56378;52.404;20.816;2024-02-21T11:40:03;33.75;;;12.07;;
69260;SDS011;56378;52.404;20.816;2024-02-21T11:42:32;34.58;;;12.93;;
69260;SDS011;56378;52.404;20.816;2024-02-21T11:44:58;33.93;;;12.33;;
69260;SDS011;56378;52.404;20.816;2024-02-21T11:47:25;34.55;;;12.88;;
69260;SDS011;56378;52.404;20.816;2024-02-21T11:49:53;35.50;;;12.80;;
69260;SDS011;56378;52.404;20.816;2024-02-21T11:52:21;34.45;;;12.75;;
69260;SDS011;56378;52.404;20.816;2024-02-21T11:54:50;32.77;;;12.47;;
69260;SDS011;56378;52.404;20.816;2024-02-21T11:57:16;32.95;;;13.40;;
69260;SDS011;56378;52.404;20.816;2024-02-21T11:59:44;33.03;;;13.07;;
69260;SDS011;56378;52.404;20.816;2024-02-21T12:02:10;39.53;;;13.20;;
69260;SDS011;56378;52.404;20.816;2024-02-21T12:04:36;38.80;;;13.57;;
69260;SDS011;56378;52.404;20.816;2024-02-21T12:07:02;35.97;;;12.83;;
69260;SDS011;56378;52.404;20.816;2024-02-21T12:09:31;33.05;;;13.48;;
69260;SDS011;56378;52.404;20.816;2024-02-21T12:11:59;37.33;;;13.90;;
69260;SDS011;56378;52.404;20.816;2024-02-21T12:14:35;33.50;;;12.75;;
69260;SDS011;56378;52.404;20.816;2024-02-21T12:17:01;29.95;;;11.48;;
69260;SDS011;56378;52.404;20.816;2024-02-21T12:19:30;34.35;;;14.48;;
69260;SDS011;56378;52.404;20.816;2024-02-21T12:21:58;35.55;;;13.45;;
69260;SDS011;56378;52.404;20.816;2024-02-21T12:24:25;28.50;;;12.35;;
69260;SDS011;56378;52.404;20.816;2024-02-21T12:26:52;32.55;;;12.50;;
69260;SDS011;56378;52.404;20.816;2024-02-21T12:29:19;35.83;;;14.32;;
69260;SDS011;56378;52.404;20.816;2024-02-21T12:31:45;35.58;;;14.23;;
69260;SDS011;56378;52.404;20.816;2024-02-21T12:34:11;34.55;;;14.90;;
69260;SDS011;56378;52.404;20.816;2024-02-21T12:36:43;34.23;;;14.13;;
69260;SDS011;56378;52.404;20.816;2024-02-21T12:39:10;32.83;;;13.23;;
69260;SDS011;56378;52.404;20.816;2024-02-21T12:41:36;34.67;;;13.70;;
69260;SDS011;56378;52.404;20.816;2024-02-21T12:44:06;34.45;;;12.40;;
69260;SDS011;56378;52.404;20.816;2024-02-21T12:46:36;31.67;;;12.60;;
69260;SDS011;56378;52.404;20.816;2024-02-21T12:49:03;31.53;;;12.73;;
69260;SDS011;56378;52.404;20.816;2024-02-21T12:51:30;33.33;;;12.73;;
69260;SDS011;56378;52.404;20.816;2024-02-21T12:53:56;31.60;;;11.88;;
69260;SDS011;56378;52.404;20.816;2024-02-21T12:56:22;27.08;;;11.80;;
69260;SDS011;56378;52.404;20.816;2024-02-21T12:58:50;30.83;;;12.23;;
69260;SDS011;56378;52.404;20.816;2024-02-21T13:01:16;28.80;;;11.77;;
69260;SDS011;56378;52.404;20.816;2024-02-21T13:03:42;30.00;;;11.68;;
69260;SDS011;56378;52.404;20.816;2024-02-21T13:06:08;27.98;;;12.00;;
69260;SDS011;56378;52.404;20.816;2024-02-21T13:08:36;30.45;;;11.90;;
69260;SDS011;56378;52.404;20.816;2024-02-21T13:11:02;30.77;;;11.60;;
69260;SDS011;56378;52.404;20.816;2024-02-21T13:13:29;29.38;;;11.90;;
69260;SDS011;56378;52.404;20.816;2024-02-21T13:15:55;25.92;;;11.38;;
69260;SDS011;56378;52.404;20.816;2024-02-21T13:18:21;32.33;;;13.10;;
69260;SDS011;56378;52.404;20.816;2024-02-21T13:20:47;24.50;;;11.47;;
69260;SDS011;56378;52.404;20.816;2024-02-21T13:23:13;27.33;;;11.93;;
69260;SDS011;56378;52.404;20.816;2024-02-21T13:25:38;29.37;;;11.53;;
69260;SDS011;56378;52.404;20.816;2024-02-21T13:28:04;32.40;;;11.68;;
69260;SDS011;56378;52.404;20.816;2024-02-21T13:30:30;33.30;;;12.60;;
69260;SDS011;56378;52.404;20.816;2024-02-21T13:32:56;26.53;;;12.20;;
69260;SDS011;56378;52.404;20.816;2024-02-21T13:35:21;30.17;;;12.30;;
69260;SDS011;56378;52.404;20.816;2024-02-21T13:37:47;31.83;;;12.37;;
69260;SDS011;56378;52.404;20.816;2024-02-21T13:40:13;28.42;;;11.38;;
69260;SDS011;56378;52.404;20.816;2024-02-21T13:42:39;29.80;;;10.83;;
69260;SDS011;56378;52.404;20.816;2024-02-21T13:45:06;27.40;;;11.45;;
69260;SDS011;56378;52.404;20.816;2024-02-21T13:47:32;28.15;;;11.73;;
69260;SDS011;56378;52.404;20.816;2024-02-21T13:49:59;53.83;;;21.05;;
69260;SDS011;56378;52.404;20.816;2024-02-21T13:52:24;37.45;;;14.75;;
69260;SDS011;56378;52.404;20.816;2024-02-21T13:54:53;39.38;;;15.15;;
69260;SDS011;56378;52.404;20.816;2024-02-21T13:57:19;28.92;;;13.43;;
69260;SDS011;56378;52.404;20.816;2024-02-21T13:59:45;34.40;;;13.00;;
69260;SDS011;56378;52.404;20.816;2024-02-21T14:02:10;32.58;;;13.30;;
69260;SDS011;56378;52.404;20.816;2024-02-21T14:04:37;38.80;;;14.00;;
69260;SDS011;56378;52.404;20.816;2024-02-21T14:07:03;25.98;;;12.02;;
69260;SDS011;56378;52.404;20.816;2024-02-21T14:09:29;32.83;;;13.40;;
69260;SDS011;56378;52.404;20.816;2024-02-21T14:11:54;26.42;;;10.98;;
69260;SDS011;56378;52.404;20.816;2024-02-21T14:14:20;28.90;;;12.25;;
69260;SDS011;56378;52.404;20.816;2024-02-21T14:16:46;30.00;;;10.73;;